Centerville, TX

11:41 AM CST on December 07, 2016 (GMT -0600)
NT5CC Amateur Radio Station | | Change Station

Elev 328 ft 31.26 °N, 95.94 °W | Updated 2 minutes ago

Overcast
Overcast
52.0 °F
Feels Like 52.0 °F
N
0.0
Wind Variable Wind from South
Gusts 4.0 mph

Today
High -- | Low -- °F
--% Chance of Precip.
Yesterday
High -- | Low -- °F
Precip. -- in
Pressure 30.15 in
Visibility 10.0 miles
Clouds Scattered Clouds 1300 ft
Overcast 1900 ft
Dew Point 50 °F
Humidity 92%
Rainfall 0.00 in
Snow Depth Not available.
7:10 AM 5:21 PM
First Quarter, 54% visible
METAR KDKR 071710Z AUTO 21004KT 10SM SCT013 OVC019 12/08 A3015 RMK AO2
Pressure 30.15 in
Visibility 10.0 miles
Clouds Scattered Clouds 1300 ft
Overcast 1900 ft
Dew Point 50 °F
Humidity 92%
Rainfall 0.00 in
Snow Depth Not available.
7:10 AM 5:21 PM
First Quarter, 54% visible
METAR KDKR 071710Z AUTO 21004KT 10SM SCT013 OVC019 12/08 A3015 RMK AO2

10-Day Weather Forecast

Almanac

Astronomy

Dec. 07, 2016 Rise Set
Actual Time
Civil Twilight
Nautical Twilight
Astronomical Twilight
Moon
Length of Visible Light
Length of Day
Tomorrow will be .
, % of the Moon is Illuminated

Today's Extremes

State Highs State Lows

Community

WunderPhotos

Upload Photos

1,956,156 photos uploaded!

WunderBlog® & News

Nearby

Air Quality

  Air Quality AQ Index Pollutant
Not available.

Snow Depth

Station Depth Elevation

Earthquake Activity

City Distance Mag. Time & Date
Minimum magnitude displayed is 2.5.

Coastal Water Temperatures

Place Temperature

Stations

Nearby Weather Stations

Station Location Temp. Windchill Dew Point Humidity Wind Precip. Elev Updated Type
                   

Watches & Warnings

There are currently no watches in effect.